Aeroporto :
LOGIN :

Iscrizione | Disclaimer

   EN    FR    IT 

 










Sommario :    VFR   VFR Marginale   IFR   IFR Intensivo   IFR Molto Intensivo
Visibilità : 
Base nubi : 
>= 8 km
>= 3000ft
5 / 8 km
1000 / 3000 ft
1500m / 5 km
500 / 1000 ft
800 / 1500m
200 / 500 ft
< 800m
< 200 ft
Simboli :   Temporali  Nebbia  Neve Forte  Precipitazioni Forti  Vento > 20 kt
SIGMETs :   Varie  Temporali  Ghiacco  Turbolenza  Onda orograficha  Ceneri Vulcaniche






- Altitudine del aeroporto : 72 ft
- Codice IATA : UDE


EHVK - Volkel Airbase

ULTIMO METAR :
  • 221625Z AUTO 23019G29KT 9999 SCT010 BKN013 OVC015 10/08 Q1018 REDZ GRN

METARs OBSOLETI :
  • 221555Z AUTO 23021KT 200V260 9999 OVC011 10/08 Q1018 GRN
  • 221525Z AUTO 24019KT 210V270 9999 OVC012 10/07 Q1018 GRN
  • 221455Z AUTO 23023KT 200V260 9999 BKN013 BKN017 OVC020 10/07 Q1018 GRN
  • 221435Z AUTO 23023KT 200V260 9999 BKN014 OVC017 10/07 Q1017 GRN

TAF TAF EHVK
Valido dal 22 a 14 ore il 23 a 02 ore UTC


221331Z 2214/2302 22022G35KT 9999 SCT018 BKN020
TEMPO 2214/2216 4500 RA SCT012 OVC017
BECMG 2215/2217 SCT020 BKN040
PROB30
TEMPO 2216/2301 SCT015 BKN020
BECMG 2301/2302 24012G22KT 4000 RA FEW012 SCT015 OVC020



MetMap, La meteo Aeronautica in un colpo d'occhio ! - Copyright ORBIFLY Dicembre 2007 - Disclaimer

ORBIFLY MET'MAP TEAM :

Programmazione e sviluppo : Alexandra Zaïnal
Concezione : Baudouin d'Aumeries
Aiuto per la programmazione : Marc-Olivier Méhu
Supporto tecnico e logistico : Manuel Goepfert
Aiuto per la traduzione : Arnaldo La Scala

Contatto : metmap@orbifly.com




FONTI E CREDITI :

   NOAA